Time;durP1;ratioP1;P1;durP2;ratioP2;P2;SDS_P1;SDS_P2;PMS_P1;PMS_P2;Temp;Humidity;BMP_temperature;BMP_pressure;BME280_temperature;BME280_humidity;BME280_pressure;Samples;Min_cycle;Max_cycle;Signal;HPM_P1;HPM_P2
2021/09/17 05:00:57;;;;;;;14.20;8.15;;;;;;;17.08;78.76;94738.75;5864519;23;20664;-77
2021/09/17 05:03:22;;;;;;;9.50;8.60;;;;;;;17.09;79.29;94743.00;4947918;29;20133;-77
2021/09/17 05:05:49;;;;;;;9.75;8.77;;;;;;;16.62;79.95;94712.22;4950141;29;20082;-76
2021/09/17 05:08:15;;;;;;;13.43;7.97;;;;;;;16.98;78.47;94743.72;4947317;29;20062;-78
2021/09/17 05:10:40;;;;;;;10.68;8.82;;;;;;;17.13;79.68;94741.56;4946682;29;20023;-76
2021/09/17 05:13:07;;;;;;;9.02;8.02;;;;;;;17.19;79.28;94751.16;4948676;28;20461;-76
2021/09/17 05:15:32;;;;;;;9.32;8.50;;;;;;;17.28;79.27;94741.19;4950974;28;20520;-78
2021/09/17 05:17:57;;;;;;;11.80;7.85;;;;;;;17.36;76.56;94741.72;4949467;28;20035;-77
2021/09/17 05:20:23;;;;;;;9.00;7.97;;;;;;;17.51;75.66;94737.94;4950414;28;20404;-78
2021/09/17 05:22:48;;;;;;;10.73;7.95;;;;;;;17.67;75.98;94748.66;4950223;28;20630;-76
2021/09/17 05:25:14;;;;;;;9.77;8.27;;;;;;;17.77;77.55;94742.91;4949055;28;20405;-76
2021/09/17 05:27:40;;;;;;;9.25;8.52;;;;;;;17.85;77.46;94742.63;4949950;28;20031;-76
2021/09/17 05:30:06;;;;;;;13.52;8.55;;;;;;;17.98;76.61;94752.91;4948007;28;20030;-76
2021/09/17 05:32:32;;;;;;;9.90;7.45;;;;;;;18.14;74.84;94744.44;4948353;28;20039;-75
2021/09/17 05:34:57;;;;;;;9.90;7.97;;;;;;;18.23;73.21;94744.94;4947038;28;20031;-76
2021/09/17 05:37:23;;;;;;;8.63;7.57;;;;;;;18.39;72.57;94760.84;4948887;28;20031;-75
2021/09/17 05:39:48;;;;;;;8.70;8.00;;;;;;;18.53;72.88;94758.03;4948673;28;20062;-76
2021/09/17 05:42:14;;;;;;;8.88;7.97;;;;;;;18.77;72.19;94750.03;4949260;28;20094;-76
2021/09/17 05:44:39;;;;;;;11.98;8.23;;;;;;;19.04;71.48;94755.63;4949131;28;20512;-76
2021/09/17 05:47:05;;;;;;;8.02;7.13;;;;;;;19.45;69.17;94750.31;4948065;29;20035;-77
2021/09/17 05:49:30;;;;;;;7.82;6.68;;;;;;;19.77;66.36;94745.44;4949983;28;20035;-75
2021/09/17 05:51:56;;;;;;;14.18;7.22;;;;;;;19.60;67.96;94744.56;4947870;28;20059;-76
2021/09/17 05:54:22;;;;;;;9.35;7.50;;;;;;;19.17;72.34;94737.03;4949323;29;20026;-76
2021/09/17 05:56:48;;;;;;;7.97;7.38;;;;;;;19.05;73.95;94735.41;4936129;28;20039;-77
2021/09/17 05:59:13;;;;;;;8.65;7.68;;;;;;;19.19;73.24;94729.72;4926701;28;20816;-77
2021/09/17 06:01:39;;;;;;;7.72;7.10;;;;;;;19.17;71.45;94721.25;4929254;29;20552;-76
2021/09/17 06:04:04;;;;;;;10.68;8.05;;;;;;;19.18;72.12;94719.44;4929190;29;20031;-77
2021/09/17 06:06:29;;;;;;;10.38;8.02;;;;;;;19.13;72.87;94711.47;4929977;29;20028;-77
2021/09/17 06:08:57;;;;;;;8.82;7.97;;;;;;;19.30;71.50;94714.97;4928919;29;20028;-76
2021/09/17 06:11:22;;;;;;;8.18;7.47;;;;;;;19.41;70.94;94707.13;4929883;29;20503;-77
2021/09/17 06:13:48;;;;;;;8.43;7.82;;;;;;;19.26;70.87;94698.09;4927987;29;20028;-76
2021/09/17 06:16:13;;;;;;;11.27;8.25;;;;;;;19.53;71.24;94696.59;4929515;29;20038;-76
2021/09/17 06:18:39;;;;;;;7.95;7.35;;;;;;;19.64;69.72;94702.84;4929569;29;20035;-76
2021/09/17 06:21:04;;;;;;;11.18;7.95;;;;;;;19.90;70.41;94713.63;4929280;29;20477;-77
2021/09/17 06:23:30;;;;;;;12.75;7.75;;;;;;;19.92;71.30;94716.00;4938606;29;20023;-76
2021/09/17 06:25:58;;;;;;;8.80;7.90;;;;;;;19.92;71.24;94721.28;4946456;28;20059;-77
2021/09/17 06:28:26;;;;;;;8.50;7.40;;;;;;;20.23;69.78;94709.47;4942140;29;20071;-77
2021/09/17 06:30:52;;;;;;;8.82;6.85;;;;;;;21.40;67.35;94713.78;4929080;29;20106;-78
2021/09/17 06:33:17;;;;;;;9.13;7.13;;;;;;;21.67;64.24;94718.34;4930108;29;20502;-78
2021/09/17 06:35:43;;;;;;;13.80;8.07;;;;;;;22.46;61.07;94693.91;4927689;29;20497;-79
2021/09/17 06:38:08;;;;;;;12.15;8.48;;;;;;;23.37;60.36;94707.00;4933716;29;20016;-77
2021/09/17 06:40:34;;;;;;;14.38;9.23;;;;;;;29.79;40.93;94691.97;4948381;28;20114;-78
2021/09/17 06:42:59;;;;;;;7.15;6.55;;;;;;;31.10;36.15;94692.91;4947773;28;20020;-77
2021/09/17 06:45:25;;;;;;;8.02;7.07;;;;;;;31.00;36.75;94688.59;4948894;28;20028;-78
2021/09/17 06:47:53;;;;;;;8.02;5.63;;;;;;;28.00;40.70;94676.69;4947580;28;20035;-78
2021/09/17 06:50:19;;;;;;;7.30;5.32;;;;;;;30.41;38.28;94686.97;4948247;29;20098;-78
2021/09/17 06:52:48;;;;;;;6.35;5.75;;;;;;;31.23;36.60;94670.63;4946315;29;20038;-78
2021/09/17 06:55:17;;;;;;;9.02;6.90;;;;;;;30.65;37.41;94692.06;4947643;29;20034;-77
2021/09/17 06:57:47;;;;;;;8.48;5.22;;;;;;;31.71;36.01;94687.56;4932258;29;20055;-79
2021/09/17 07:00:14;;;;;;;7.45;4.97;;;;;;;32.41;34.80;94693.91;4928192;29;20110;-78
2021/09/17 07:02:39;;;;;;;5.82;5.32;;;;;;;33.76;33.08;94696.81;4929650;29;20051;-77
2021/09/17 07:05:05;;;;;;;6.72;5.60;;;;;;;33.13;34.02;94689.56;4943487;29;20042;-79
2021/09/17 07:07:30;;;;;;;7.10;4.95;;;;;;;34.33;32.34;94688.31;4935072;29;20118;-78
2021/09/17 07:09:56;;;;;;;4.82;4.53;;;;;;;33.56;32.78;94686.72;4947547;28;20028;-78
2021/09/17 07:12:21;;;;;;;5.75;5.13;;;;;;;32.65;33.17;94678.97;4948900;28;20059;-78
2021/09/17 07:14:46;;;;;;;8.45;5.53;;;;;;;29.59;38.11;94670.19;4948348;28;20034;-77
2021/09/17 07:17:12;;;;;;;6.18;5.35;;;;;;;28.87;40.66;94680.50;4948813;28;20027;-79
2021/09/17 07:19:37;;;;;;;5.65;5.13;;;;;;;28.90;39.35;94671.91;4949079;28;20502;-79
2021/09/17 07:22:05;;;;;;;5.60;5.20;;;;;;;28.71;39.53;94679.97;4946809;29;20024;-79
2021/09/17 07:24:31;;;;;;;10.43;5.40;;;;;;;28.80;40.14;94689.97;4949116;28;20760;-79
2021/09/17 07:26:56;;;;;;;6.18;5.50;;;;;;;27.93;38.87;94684.22;4933667;28;20032;-79
2021/09/17 07:29:22;;;;;;;8.48;4.95;;;;;;;28.38;38.80;94673.00;4928843;29;20090;-79
2021/09/17 07:31:48;;;;;;;5.55;4.90;;;;;;;27.64;40.02;94661.13;4928460;29;20043;-78
2021/09/17 07:34:13;;;;;;;7.22;5.10;;;;;;;28.48;38.94;94653.38;4934501;29;20098;-79
2021/09/17 07:36:38;;;;;;;10.05;5.82;;;;;;;28.07;38.69;94650.50;4946845;29;20031;-78
2021/09/17 07:39:04;;;;;;;6.20;5.68;;;;;;;28.21;39.41;94648.69;4948207;28;20511;-78
2021/09/17 07:41:29;;;;;;;6.35;5.35;;;;;;;27.88;39.97;94647.78;4948532;29;20038;-79
2021/09/17 07:43:55;;;;;;;8.93;5.43;;;;;;;28.20;39.69;94645.25;4946612;29;20098;-78
2021/09/17 07:46:20;;;;;;;8.73;5.95;;;;;;;28.61;38.28;94633.97;4949700;28;20034;-79
2021/09/17 07:48:46;;;;;;;9.93;7.38;;;;;;;28.47;39.17;94635.81;4933598;29;20401;-78
2021/09/17 07:51:11;;;;;;;11.45;8.30;;;;;;;28.75;37.85;94638.31;4952667;29;20027;-80
2021/09/17 07:53:37;;;;;;;9.82;7.50;;;;;;;29.27;38.07;94637.16;4950202;29;20034;-79
2021/09/17 07:56:02;;;;;;;11.63;6.47;;;;;;;28.54;39.50;94633.56;4951478;28;20054;-78
2021/09/17 07:58:28;;;;;;;9.35;6.32;;;;;;;28.41;38.78;94624.44;4951494;28;20386;-77
2021/09/17 08:00:53;;;;;;;9.88;5.68;;;;;;;27.92;39.12;94632.03;4951048;28;20062;-77
2021/09/17 08:03:21;;;;;;;14.80;6.10;;;;;;;28.12;39.19;94623.78;4952119;28;20035;-78
2021/09/17 08:05:47;;;;;;;7.50;5.57;;;;;;;27.77;39.63;94621.56;4931346;29;20100;-77
2021/09/17 08:08:12;;;;;;;11.70;5.95;;;;;;;28.67;39.08;94617.63;4932745;29;20516;-78
2021/09/17 08:10:38;;;;;;;9.07;6.00;;;;;;;28.80;38.73;94616.09;4931084;29;20035;-78
2021/09/17 08:13:04;;;;;;;8.00;5.55;;;;;;;28.75;38.32;94611.63;4931578;29;20024;-78
2021/09/17 08:15:29;;;;;;;6.55;5.28;;;;;;;28.46;37.60;94605.69;4932386;29;20553;-77
2021/09/17 08:17:54;;;;;;;14.73;5.22;;;;;;;29.56;36.88;94607.50;4930685;29;20402;-78
2021/09/17 08:20:21;;;;;;;10.05;5.60;;;;;;;29.01;37.46;94579.97;4932485;29;20035;-79
2021/09/17 08:22:47;;;;;;;8.65;5.35;;;;;;;29.93;36.39;94590.44;4931303;29;20042;-79
2021/09/17 08:25:12;;;;;;;8.93;5.53;;;;;;;29.91;36.77;94587.28;4933173;29;20498;-78
2021/09/17 08:27:39;;;;;;;11.82;5.60;;;;;;;29.01;37.43;94584.50;4950045;29;20470;-78
2021/09/17 08:30:05;;;;;;;10.85;5.40;;;;;;;28.92;36.82;94578.28;4951830;29;20027;-79
2021/09/17 08:32:31;;;;;;;11.98;5.70;;;;;;;29.19;38.44;94576.41;4950126;29;20151;-79
2021/09/17 08:34:56;;;;;;;10.23;5.88;;;;;;;30.20;37.92;94578.91;4939212;29;20535;-78
2021/09/17 08:37:22;;;;;;;9.75;5.60;;;;;;;30.74;36.67;94567.19;4932225;29;20390;-79
2021/09/17 08:39:47;;;;;;;7.85;5.10;;;;;;;30.43;36.09;94548.44;4930908;29;20265;-78
2021/09/17 08:42:13;;;;;;;13.43;5.70;;;;;;;29.83;36.33;94569.28;4931286;29;20032;-79
2021/09/17 08:44:38;;;;;;;13.85;5.90;;;;;;;30.94;36.33;94564.00;4930402;29;20038;-81
2021/09/17 08:47:05;;;;;;;8.95;5.15;;;;;;;31.42;36.61;94558.69;4932362;29;20024;-82
2021/09/17 08:49:31;;;;;;;12.55;5.22;;;;;;;31.62;33.96;94560.03;4930762;29;20031;-79
2021/09/17 08:51:56;;;;;;;11.90;5.30;;;;;;;31.19;34.61;94560.66;4931829;29;20082;-79
2021/09/17 08:54:22;;;;;;;14.30;5.70;;;;;;;30.60;37.31;94556.56;4929749;29;20040;-79
2021/09/17 08:56:47;;;;;;;9.73;5.72;;;;;;;31.25;34.68;94558.63;4943461;28;20102;-79
2021/09/17 08:59:13;;;;;;;12.85;5.28;;;;;;;31.70;34.50;94556.56;4950267;28;20028;-79
2021/09/17 09:01:38;;;;;;;15.52;5.53;;;;;;;30.61;35.46;94555.47;4948270;29;20451;-81
2021/09/17 09:04:07;;;;;;;8.95;4.97;;;;;;;31.82;34.95;94556.78;4950909;29;20031;-78
2021/09/17 09:06:39;;;;;;;;;;;;;;;31.70;34.47;94559.25;4948575;29;20121;-80
2021/09/17 09:09:16;;;;;;;11.18;5.45;;;;;;;31.29;34.33;94555.03;4965616;28;19915;-78
2021/09/17 09:11:41;;;;;;;14.45;5.03;;;;;;;31.88;34.07;94553.59;4948788;29;20413;-81
2021/09/17 09:14:11;;;;;;;10.18;5.22;;;;;;;31.67;33.91;94533.88;4949177;29;20031;-79
2021/09/17 09:16:38;;;;;;;11.82;5.53;;;;;;;31.78;34.28;94553.94;4949375;29;20031;-81
2021/09/17 09:19:25;;;;;;;14.32;5.05;;;;;;;31.74;34.54;94552.97;4948026;29;20048;-79
2021/09/17 09:21:52;;;;;;;12.70;5.95;;;;;;;31.17;34.83;94543.34;4950132;28;20038;-79
2021/09/17 09:24:20;;;;;;;14.02;4.82;;;;;;;32.81;33.95;94545.06;4949616;29;20090;-78
2021/09/17 09:26:46;;;;;;;10.48;5.32;;;;;;;31.69;33.51;94546.97;4949808;29;20501;-78
2021/09/17 09:29:27;;;;;;;16.05;5.88;;;;;;;32.00;34.15;94546.84;4934205;28;20090;-78
2021/09/17 09:31:53;;;;;;;18.65;6.03;;;;;;;31.88;34.44;94539.44;4929883;29;20103;-79
2021/09/17 09:34:18;;;;;;;13.95;5.93;;;;;;;30.49;35.11;94539.19;4931308;29;20060;-76
2021/09/17 09:36:43;;;;;;;8.98;5.15;;;;;;;31.40;34.02;94528.75;4929538;29;20445;-79
2021/09/17 09:39:09;;;;;;;12.77;5.15;;;;;;;31.86;34.18;94542.41;4930226;29;20035;-79
2021/09/17 09:41:35;;;;;;;13.23;4.80;;;;;;;32.72;33.79;94539.72;4930096;29;20034;-83
2021/09/17 09:44:05;;;;;;;9.68;5.68;;;;;;;33.02;33.32;94537.09;4931360;29;20028;-79
2021/09/17 09:46:34;;;;;;;11.50;5.38;;;;;;;32.64;33.09;94540.53;4931090;29;20028;-78
2021/09/17 09:49:01;;;;;;;14.70;5.38;;;;;;;32.02;33.16;94539.25;4929767;29;20460;-78
2021/09/17 09:51:27;;;;;;;16.70;5.70;;;;;;;32.18;33.70;94532.34;4931323;29;20032;-77
2021/09/17 09:53:52;;;;;;;15.18;5.22;;;;;;;32.64;34.63;94545.91;4928573;29;20020;-84
2021/09/17 09:56:21;;;;;;;18.33;5.80;;;;;;;32.89;33.58;94539.66;4937870;28;20094;-80
2021/09/17 09:58:50;;;;;;;19.30;5.35;;;;;;;33.07;33.94;94537.72;4948416;28;20409;-84
2021/09/17 10:01:17;;;;;;;20.95;5.43;;;;;;;32.45;33.83;94528.53;4949600;28;20053;-79
2021/09/17 10:03:43;;;;;;;14.82;5.05;;;;;;;32.81;33.19;94515.56;4948199;29;20041;-78
2021/09/17 10:06:09;;;;;;;13.93;5.35;;;;;;;33.37;32.69;94512.47;4928456;29;20130;-78
2021/09/17 10:08:34;;;;;;;19.17;6.30;;;;;;;31.66;33.78;94508.19;4930732;29;20091;-78
2021/09/17 10:11:00;;;;;;;20.27;5.40;;;;;;;31.98;33.74;94495.44;4934014;29;20034;-79
2021/09/17 10:13:25;;;;;;;27.13;5.40;;;;;;;30.68;35.30;94488.16;4949968;28;20023;-79
2021/09/17 10:15:51;;;;;;;14.20;4.70;;;;;;;32.30;34.84;94497.66;4963627;28;20416;-79
2021/09/17 10:18:17;;;;;;;18.27;5.53;;;;;;;30.53;34.65;94483.22;4948355;29;20031;-82
2021/09/17 10:20:43;;;;;;;21.52;5.72;;;;;;;31.50;34.64;94495.56;4947439;29;20468;-79
2021/09/17 10:23:27;;;;;;;19.38;5.15;;;;;;;32.15;34.81;94498.91;4944494;28;20031;-80
2021/09/17 10:26:09;;;;;;;19.48;4.85;;;;;;;31.89;34.74;94495.41;4932017;29;20423;-81
2021/09/17 10:28:58;;;;;;;23.95;5.47;;;;;;;31.54;34.66;94497.28;4937409;29;20031;-80
2021/09/17 10:31:24;;;;;;;13.30;5.00;;;;;;;31.14;35.69;94503.81;4931650;29;20039;-79
2021/09/17 10:33:49;;;;;;;17.88;5.47;;;;;;;31.41;36.32;94506.22;4929921;29;20036;-80
2021/09/17 10:36:14;;;;;;;18.23;6.30;;;;;;;32.11;34.29;94508.69;4928545;29;20413;-79
2021/09/17 10:38:41;;;;;;;21.23;6.32;;;;;;;31.96;33.77;94500.31;4929062;29;20043;-80
2021/09/17 10:41:07;;;;;;;18.60;5.57;;;;;;;32.24;33.87;94496.22;4928910;29;20031;-80
2021/09/17 10:43:46;;;;;;;21.77;5.80;;;;;;;31.80;34.90;94491.97;4930520;29;20020;-82
2021/09/17 10:46:20;;;;;;;13.98;5.40;;;;;;;31.65;35.91;94490.53;4930887;29;20065;-81
2021/09/17 10:48:45;;;;;;;16.15;5.30;;;;;;;31.58;34.90;94482.19;4949497;28;20655;-79
2021/09/17 10:51:37;;;;;;;18.75;5.30;;;;;;;31.20;36.28;94467.75;4948588;28;20035;-80
2021/09/17 10:54:07;;;;;;;19.25;6.00;;;;;;;30.65;35.90;94457.47;4947966;29;20038;-80
2021/09/17 10:56:59;;;;;;;28.13;5.88;;;;;;;30.63;36.06;94466.91;4948796;28;20075;-80
2021/09/17 10:59:25;;;;;;;24.73;6.60;;;;;;;30.78;36.05;94466.50;4945124;28;20039;-82
2021/09/17 11:02:00;;;;;;;22.13;5.80;;;;;;;30.55;36.29;94463.09;4945508;29;20130;-80
2021/09/17 11:04:27;;;;;;;16.90;5.63;;;;;;;30.39;35.05;94453.84;4926512;28;20513;-81
2021/09/17 11:06:53;;;;;;;25.30;6.10;;;;;;;30.47;35.84;94447.78;4927551;29;20649;-81
2021/09/17 11:09:38;;;;;;;18.58;6.05;;;;;;;30.45;36.88;94439.28;4928548;29;20126;-80
2021/09/17 11:12:26;;;;;;;13.32;4.55;;;;;;;31.06;35.59;94433.06;4943162;29;20035;-80
2021/09/17 11:15:05;;;;;;;20.27;6.18;;;;;;;31.68;35.16;94436.31;4930029;29;20028;-88
2021/09/17 11:17:50;;;;;;;25.02;5.75;;;;;;;31.48;34.14;94431.56;4929713;29;20059;-78
2021/09/17 11:20:20;;;;;;;23.33;6.18;;;;;;;31.60;34.97;94434.41;4927548;29;20042;-80
2021/09/17 11:22:49;;;;;;;19.88;5.40;;;;;;;31.79;34.54;94424.16;4933769;29;20698;-81
2021/09/17 11:25:19;;;;;;;18.75;5.78;;;;;;;31.90;33.42;94411.25;4946223;29;20090;-79
2021/09/17 11:27:45;;;;;;;22.25;5.90;;;;;;;31.98;32.64;94429.19;4937383;29;20452;-80
2021/09/17 11:30:10;;;;;;;23.98;6.60;;;;;;;31.65;34.18;94420.88;4950957;29;20090;-82
2021/09/17 11:32:36;;;;;;;21.52;5.80;;;;;;;31.59;34.52;94416.78;4935793;28;20036;-78
2021/09/17 11:35:08;;;;;;;26.88;5.22;;;;;;;31.62;33.56;94410.81;4932868;29;20530;-78
2021/09/17 11:37:34;;;;;;;19.52;5.25;;;;;;;31.44;34.02;94401.13;4942285;29;20495;-78
2021/09/17 11:40:07;;;;;;;19.05;5.22;;;;;;;31.65;33.71;94402.13;4952132;28;20102;-78
2021/09/17 11:42:32;;;;;;;21.27;5.93;;;;;;;31.46;35.30;94404.31;4950315;28;20115;-82
2021/09/17 11:44:58;;;;;;;19.90;5.85;;;;;;;31.47;34.61;94395.16;4936648;29;20040;-79
2021/09/17 11:47:24;;;;;;;18.52;5.18;;;;;;;31.63;34.29;94390.13;4931734;29;20038;-79
2021/09/17 11:49:53;;;;;;;22.65;6.78;;;;;;;31.35;34.79;94389.63;4932605;29;20031;-79
2021/09/17 11:52:19;;;;;;;20.67;6.05;;;;;;;31.23;35.55;94389.47;4931702;29;20059;-81
2021/09/17 11:55:00;;;;;;;23.55;6.85;;;;;;;31.00;35.96;94394.16;4931008;29;20028;-80
2021/09/17 11:57:33;;;;;;;16.65;5.55;;;;;;;30.88;35.36;94393.97;4931464;29;20334;-80
2021/09/17 11:59:59;;;;;;;19.73;6.13;;;;;;;30.47;36.38;94372.13;4946147;28;20035;-80
2021/09/17 12:02:25;;;;;;;24.30;6.13;;;;;;;30.20;36.49;94394.47;4931180;29;20048;-80
2021/09/17 12:05:01;;;;;;;20.98;5.63;;;;;;;29.90;36.77;94392.53;4932185;29;20190;-79
2021/09/17 12:07:27;;;;;;;21.60;5.32;;;;;;;29.64;36.86;94379.78;4950858;29;20058;-79
2021/09/17 12:09:53;;;;;;;20.45;6.10;;;;;;;29.57;37.72;94382.09;4951057;29;20039;-79
2021/09/17 12:12:22;;;;;;;20.13;5.70;;;;;;;29.64;37.10;94374.44;4950523;29;20033;-78
2021/09/17 12:14:54;;;;;;;23.17;6.40;;;;;;;29.35;38.53;94360.72;4952164;29;20045;-79
2021/09/17 12:17:20;;;;;;;28.92;6.03;;;;;;;29.31;37.77;94354.44;4950425;28;20554;-79
2021/09/17 12:20:12;;;;;;;30.90;7.05;;;;;;;29.05;38.26;94348.06;4951702;29;20031;-79
2021/09/17 12:22:38;;;;;;;22.85;5.00;;;;;;;29.17;37.39;94357.09;4950350;29;20484;-79
2021/09/17 12:25:09;;;;;;;19.88;5.50;;;;;;;29.15;37.87;94355.84;4950535;29;20027;-80
2021/09/17 12:27:35;;;;;;;20.40;5.63;;;;;;;29.45;37.72;94355.16;4950132;29;20031;-79
2021/09/17 12:30:06;;;;;;;28.98;6.15;;;;;;;29.51;38.07;94353.94;4950206;29;20035;-80
2021/09/17 12:32:31;;;;;;;24.40;5.55;;;;;;;29.40;37.70;94351.81;4950582;28;20074;-79
2021/09/17 12:35:06;;;;;;;14.85;5.82;;;;;;;29.48;37.86;94359.09;4947732;29;20085;-78
2021/09/17 12:37:32;;;;;;;23.85;5.63;;;;;;;29.18;38.51;94355.22;4931426;29;20032;-78
2021/09/17 12:40:17;;;;;;;21.95;5.50;;;;;;;29.42;38.32;94369.09;4932035;29;20047;-79
2021/09/17 12:42:43;;;;;;;25.73;6.50;;;;;;;29.33;38.99;94373.59;4929258;29;20405;-88
2021/09/17 12:45:10;;;;;;;22.88;5.88;;;;;;;29.32;39.02;94364.00;4931096;29;20035;-79
2021/09/17 12:47:35;;;;;;;21.38;5.30;;;;;;;29.14;39.00;94383.59;4929230;29;20066;-79
2021/09/17 12:50:11;;;;;;;30.98;7.60;;;;;;;28.40;40.99;94398.94;4930733;29;20024;-79
2021/09/17 12:52:43;;;;;;;27.75;6.88;;;;;;;27.09;46.39;94398.38;4930454;29;20027;-84
2021/09/17 12:55:24;;;;;;;36.83;7.13;;;;;;;26.51;49.52;94401.19;4942335;28;20035;-78
2021/09/17 12:57:55;;;;;;;24.27;6.43;;;;;;;26.30;51.00;94402.47;4931859;29;20032;-78
2021/09/17 13:00:21;;;;;;;30.00;6.68;;;;;;;26.23;51.75;94399.38;4930240;29;20074;-80
2021/09/17 13:02:46;;;;;;;28.73;6.40;;;;;;;26.06;52.71;94413.06;4929556;29;20079;-78
2021/09/17 13:05:12;;;;;;;36.45;7.40;;;;;;;25.32;55.87;94407.25;4930099;29;20040;-78
2021/09/17 13:07:37;;;;;;;33.97;7.00;;;;;;;25.07;57.83;94409.00;4930279;29;20036;-79
2021/09/17 13:10:03;;;;;;;33.15;7.57;;;;;;;25.26;60.31;94405.72;4930793;29;20469;-78
2021/09/17 13:12:29;;;;;;;27.73;6.20;;;;;;;25.27;59.41;94405.41;4929455;29;20051;-79
2021/09/17 13:14:54;;;;;;;37.90;7.03;;;;;;;25.25;58.75;94430.63;4945632;29;20046;-78
2021/09/17 13:17:20;;;;;;;24.50;6.82;;;;;;;25.24;57.88;94448.41;4928043;29;20030;-80
2021/09/17 13:19:45;;;;;;;68.65;10.70;;;;;;;24.48;69.21;94447.91;4929564;29;20032;-77
2021/09/17 13:22:11;;;;;;;43.92;9.40;;;;;;;23.70;76.74;94463.31;4929332;29;20042;-77
2021/09/17 13:24:36;;;;;;;27.05;7.60;;;;;;;23.24;75.95;94459.78;4940216;29;20047;-81
2021/09/17 13:27:02;;;;;;;21.75;7.72;;;;;;;23.40;76.72;94440.28;4947992;29;20035;-84
2021/09/17 13:29:27;;;;;;;22.23;7.60;;;;;;;23.21;76.04;94436.53;4949436;28;20037;-86
2021/09/17 13:31:53;;;;;;;20.95;7.22;;;;;;;23.03;77.92;94440.44;4936388;29;20020;-82
2021/09/17 13:34:18;;;;;;;26.10;9.38;;;;;;;23.26;78.98;94436.53;4929816;29;20044;-81
2021/09/17 13:36:44;;;;;;;30.55;8.68;;;;;;;23.16;80.98;94436.50;4930962;29;20019;-87
2021/09/17 13:39:09;;;;;;;29.35;7.97;;;;;;;23.43;80.89;94426.53;4929699;29;20030;-81
2021/09/17 13:41:35;;;;;;;19.40;7.25;;;;;;;23.34;84.13;94443.16;4930164;29;20628;-80
2021/09/17 13:44:00;;;;;;;27.15;9.45;;;;;;;22.45;89.90;94445.97;4929392;29;20040;-82
2021/09/17 13:46:25;;;;;;;28.05;8.02;;;;;;;22.47;85.46;94446.53;4930059;29;20063;-83
2021/09/17 13:48:51;;;;;;;26.77;8.38;;;;;;;22.82;87.61;94446.72;4930151;29;20034;-82
2021/09/17 13:51:16;;;;;;;20.70;8.35;;;;;;;22.83;85.48;94450.16;4929297;29;20032;-83
2021/09/17 13:53:42;;;;;;;27.85;9.60;;;;;;;22.84;85.67;94459.66;4930391;29;20514;-83
2021/09/17 13:56:07;;;;;;;23.02;10.73;;;;;;;22.72;88.45;94461.72;4928569;29;20044;-83
2021/09/17 13:58:33;;;;;;;31.13;9.02;;;;;;;22.51;92.19;94455.50;4930222;29;20030;-82
2021/09/17 14:00:58;;;;;;;19.65;7.75;;;;;;;22.85;84.37;94435.63;4887782;29;1176552;-82
2021/09/17 14:03:24;;;;;;;23.73;10.13;;;;;;;22.87;87.85;94430.06;4930116;29;20047;-83
2021/09/17 14:05:49;;;;;;;22.75;8.65;;;;;;;22.49;90.07;94418.81;4930202;29;20043;-88
2021/09/17 14:08:15;;;;;;;108.45;12.20;;;;;;;22.68;87.33;94406.00;4941163;29;20094;-85
2021/09/17 14:10:41;;;;;;;41.65;9.77;;;;;;;22.18;87.97;94401.25;4948028;29;20034;-81
2021/09/17 14:13:07;;;;;;;29.13;9.90;;;;;;;22.19;87.51;94388.84;4947687;29;20038;-84
2021/09/17 14:15:32;;;;;;;26.85;8.65;;;;;;;22.39;87.01;94376.53;4950704;29;20508;-85
2021/09/17 14:17:58;;;;;;;26.52;8.57;;;;;;;22.47;88.94;94383.97;4948165;29;20043;-84
2021/09/17 14:20:23;;;;;;;25.85;8.15;;;;;;;22.46;88.66;94379.75;4949402;29;20042;-85
2021/09/17 14:22:49;;;;;;;22.55;9.05;;;;;;;22.38;89.87;94385.50;4948812;29;20098;-86
2021/09/17 14:25:14;;;;;;;17.45;9.45;;;;;;;22.24;92.72;94373.84;4949836;29;20058;-83
2021/09/17 14:27:40;;;;;;;23.02;8.40;;;;;;;22.31;91.17;94377.03;4948052;29;20024;-83
2021/09/17 14:30:06;;;;;;;23.55;8.63;;;;;;;22.31;91.55;94378.88;4949028;29;20030;-83
2021/09/17 14:32:32;;;;;;;27.90;9.60;;;;;;;21.99;92.80;94374.47;4948554;29;20473;-84
2021/09/17 14:34:57;;;;;;;51.58;10.13;;;;;;;21.85;90.63;94377.81;4937838;29;20023;-84
2021/09/17 14:37:22;;;;;;;23.02;9.52;;;;;;;22.01;90.98;94379.53;4930502;29;20031;-84
2021/09/17 14:39:48;;;;;;;23.23;10.52;;;;;;;21.81;94.17;94366.16;4945784;28;20028;-83
2021/09/17 14:42:13;;;;;;;25.98;11.18;;;;;;;21.71;93.96;94359.00;4940893;29;20123;-82
2021/09/17 14:44:39;;;;;;;26.90;10.25;;;;;;;21.64;95.52;94378.72;4914672;29;20445;-85
2021/09/17 14:47:04;;;;;;;24.95;9.73;;;;;;;21.89;93.50;94378.94;4914097;29;20091;-90
2021/09/17 14:49:30;;;;;;;21.15;8.80;;;;;;;21.79;94.17;94389.38;4930653;29;20028;-85
2021/09/17 14:51:55;;;;;;;25.80;9.27;;;;;;;21.46;92.90;94370.16;4930809;29;20020;-87
2021/09/17 14:54:21;;;;;;;22.70;8.85;;;;;;;21.59;92.48;94384.75;4911522;28;20043;-86
2021/09/17 14:56:46;;;;;;;26.60;7.85;;;;;;;21.73;89.51;94358.75;4937339;28;20028;-86
2021/09/17 14:59:12;;;;;;;25.67;8.25;;;;;;;21.84;89.79;94358.53;4934639;29;20040;-86
2021/09/17 15:01:38;;;;;;;15.80;8.02;;;;;;;21.79;90.13;94353.25;4933649;29;20054;-86
2021/09/17 15:04:04;;;;;;;19.83;8.70;;;;;;;21.78;90.11;94367.47;4943611;29;20426;-88
2021/09/17 15:06:29;;;;;;;28.35;11.25;;;;;;;21.61;91.39;94368.69;4952962;28;20019;-86
2021/09/17 15:08:55;;;;;;;25.42;10.25;;;;;;;21.54;91.12;94367.03;4952471;28;20110;-88
2021/09/17 15:11:20;;;;;;;21.30;8.35;;;;;;;21.63;89.89;94362.13;4953694;28;20031;-87
2021/09/17 15:13:46;;;;;;;89.70;9.73;;;;;;;21.57;87.50;94360.50;4952104;28;20023;-87
2021/09/17 15:16:11;;;;;;;51.45;8.30;;;;;;;21.71;83.05;94348.44;4952729;29;20406;-88
2021/09/17 15:18:37;;;;;;;24.33;8.00;;;;;;;21.66;83.85;94339.72;4952184;29;20027;-89
2021/09/17 15:21:03;;;;;;;29.33;9.35;;;;;;;21.72;86.57;94346.59;4953322;29;20032;-89
2021/09/17 15:23:29;;;;;;;20.55;8.80;;;;;;;21.55;89.87;94326.47;4952630;29;20090;-90
2021/09/17 15:25:54;;;;;;;23.55;9.10;;;;;;;21.65;89.97;94332.84;4952955;29;20031;-90
2021/09/17 15:28:20;;;;;;;23.10;9.77;;;;;;;21.56;91.95;94335.16;4954634;28;20034;-89
2021/09/17 15:30:48;;;;;;;16.73;9.27;;;;;;;21.49;89.17;94332.75;4952433;29;20024;-90
2021/09/17 15:33:14;;;;;;;31.73;9.45;;;;;;;21.57;88.78;94330.69;4952985;29;20035;-91
2021/09/17 15:35:39;;;;;;;25.67;9.65;;;;;;;21.64;93.92;94344.47;4967404;28;20038;-90
2021/09/17 15:38:05;;;;;;;22.70;9.82;;;;;;;21.67;95.22;94341.31;4968188;28;20071;-90
2021/09/17 15:40:30;;;;;;;28.70;9.60;;;;;;;21.60;95.28;94332.81;4951254;29;20478;-90
2021/09/17 15:42:56;;;;;;;26.80;10.13;;;;;;;21.60;96.07;94380.28;4968012;28;20086;-91
2021/09/17 15:45:21;;;;;;;20.52;9.20;;;;;;;21.03;96.77;94352.63;4952177;29;20027;-90
2021/09/17 15:47:47;;;;;;;25.63;10.68;;;;;;;21.36;95.94;94374.53;4951492;29;20031;-91
2021/09/17 15:50:12;;;;;;;26.02;8.68;;;;;;;21.39;94.10;94366.94;4952778;29;20082;-90
2021/09/17 15:52:41;;;;;;;19.92;8.10;;;;;;;21.51;93.61;94364.91;4953005;28;20043;-90
2021/09/17 15:55:07;;;;;;;22.90;8.23;;;;;;;21.36;91.21;94345.56;4936854;29;20114;-90
2021/09/17 15:57:33;;;;;;;28.48;9.90;;;;;;;21.58;93.02;94363.94;4935398;29;20035;-88
2021/09/17 15:59:58;;;;;;;23.05;9.75;;;;;;;21.31;94.20;94325.25;4953414;28;20031;-88
2021/09/17 16:02:24;;;;;;;20.55;9.93;;;;;;;21.26;96.86;94351.53;4967609;28;20046;-88
2021/09/17 16:04:49;;;;;;;25.98;11.05;;;;;;;21.00;98.20;94353.13;4939266;28;20038;-89
2021/09/17 16:07:15;;;;;;;21.55;8.57;;;;;;;21.16;97.57;94345.41;4948408;28;20096;-89
2021/09/17 16:09:40;;;;;;;24.70;9.95;;;;;;;20.85;98.87;94334.56;4925897;29;20030;-89
2021/09/17 16:12:08;;;;;;;18.75;9.38;;;;;;;21.01;99.40;94357.38;4901597;29;20035;-88
2021/09/17 16:14:34;;;;;;;22.90;10.73;;;;;;;20.80;99.39;94362.69;4915874;29;20027;-86
2021/09/17 16:17:00;;;;;;;20.27;10.18;;;;;;;20.71;99.92;94362.31;4917097;29;20083;-86
2021/09/17 16:19:25;;;;;;;23.77;10.32;;;;;;;20.67;100.00;94366.50;4933345;29;20046;-88
2021/09/17 16:21:50;;;;;;;28.92;11.75;;;;;;;20.52;100.00;94364.50;4936245;29;20473;-87
2021/09/17 16:24:16;;;;;;;21.42;9.27;;;;;;;20.45;99.38;94357.84;4934771;29;20043;-86
2021/09/17 16:26:41;;;;;;;18.48;9.40;;;;;;;20.34;99.72;94364.81;4934950;29;20059;-88